Terminal Aerodrome Forecast
Issued by NWS Brownsville, TX

Current Version | Previous Version | Text Only | Print | Product List | Glossary Off
Versions: 1 2 3 4 5 6 7 8 9 10 11 12 13 14

000
FTUS44 KBRO 290558 CCA
TAFMFE
TAF COR
KMFE 290558Z 2906/3006 15012KT P6SM SKC WS020/19045KT
     FM291400 15015G21KT P6SM SKC
     FM291700 15019G25KT P6SM SKC
     FM292100 14022G29KT P6SM SKC
     FM300300 16014G20KT P6SM SKC=

USA.gov is the U.S. government's official web portal to all federal, state and local government web resources and services.